createdAt,value
2023-05-09T16:15:43.169Z,2.95
2023-05-09T16:18:13.377Z,3.30
2023-05-09T16:20:44.206Z,6.47
2023-05-09T16:23:14.445Z,4.93
2023-05-09T16:25:44.871Z,5.85
2023-05-09T16:28:14.455Z,2.88
2023-05-09T16:31:08.603Z,5.57
2023-05-09T16:33:38.075Z,3.65
2023-05-09T16:36:08.040Z,5.47
2023-05-09T16:38:37.469Z,5.32
2023-05-09T16:41:06.610Z,4.55
2023-05-09T16:43:36.251Z,3.10
2023-05-09T16:46:07.741Z,5.13
2023-05-09T16:48:37.202Z,5.18
2023-05-09T16:51:07.025Z,7.65
2023-05-09T16:53:36.408Z,5.00
2023-05-09T16:56:07.555Z,2.97
2023-05-09T16:58:37.510Z,3.58
2023-05-09T17:01:08.030Z,4.93
2023-05-09T17:03:37.524Z,3.58
2023-05-09T17:06:06.988Z,5.25
2023-05-09T17:08:36.501Z,4.40
2023-05-09T17:11:06.129Z,4.65
2023-05-09T17:13:35.453Z,3.72
2023-05-09T17:16:04.932Z,8.05
2023-05-09T17:18:38.063Z,9.43
2023-05-09T17:21:07.811Z,5.15
2023-05-09T17:23:37.653Z,3.92
2023-05-09T17:26:06.801Z,5.93
2023-05-09T17:28:36.176Z,4.40
2023-05-09T17:31:05.464Z,4.78
2023-05-09T17:33:36.137Z,6.15
2023-05-09T17:36:05.586Z,3.67
2023-05-09T17:38:35.927Z,4.75
2023-05-09T17:41:05.864Z,5.20
2023-05-09T17:43:35.319Z,4.82
2023-05-09T17:46:04.961Z,4.88
2023-05-09T17:48:35.855Z,4.43
2023-05-09T17:51:05.479Z,4.40
2023-05-09T17:53:34.781Z,4.10
2023-05-09T17:56:03.953Z,7.75
2023-05-09T17:58:33.557Z,9.93
2023-05-09T18:01:03.060Z,4.70
2023-05-09T18:03:32.847Z,4.22
2023-05-09T18:06:03.531Z,7.00
2023-05-09T18:08:34.171Z,4.20
2023-05-09T18:11:03.548Z,4.55
2023-05-09T18:13:33.589Z,7.60
2023-05-09T18:16:02.899Z,6.45
2023-05-09T18:18:32.542Z,4.65
2023-05-09T18:21:04.966Z,6.75
2023-05-09T18:23:34.763Z,5.00
2023-05-09T18:26:04.458Z,3.70
2023-05-09T18:28:39.528Z,4.38
2023-05-09T18:31:11.873Z,5.53
2023-05-09T18:33:41.576Z,5.35
2023-05-09T18:36:12.454Z,4.85
2023-05-09T18:38:43.574Z,6.93
2023-05-09T18:41:13.832Z,4.68
2023-05-09T18:43:46.371Z,4.22
2023-05-09T18:46:17.772Z,6.05
2023-05-09T18:48:50.172Z,5.45
2023-05-09T18:51:21.574Z,7.05
2023-05-09T18:53:51.446Z,8.52
2023-05-09T18:56:22.271Z,6.50
2023-05-09T18:58:51.994Z,6.28
2023-05-09T19:01:21.470Z,5.85
2023-05-09T19:03:54.253Z,9.10
2023-05-09T19:06:26.262Z,9.20
2023-05-09T19:08:55.844Z,11.25
2023-05-09T19:11:25.189Z,8.38
2023-05-09T19:13:54.931Z,10.00
2023-05-09T19:16:26.669Z,11.32
2023-05-09T19:18:57.282Z,12.30
2023-05-09T19:21:28.360Z,9.55
2023-05-09T19:23:58.019Z,12.32
2023-05-09T19:26:27.304Z,9.32
2023-05-09T19:28:56.887Z,7.30
2023-05-09T19:31:26.427Z,11.73
2023-05-09T19:33:55.935Z,13.65
2023-05-09T19:36:26.560Z,7.88
2023-05-09T19:38:56.032Z,12.65
2023-05-09T19:41:25.197Z,9.80
2023-05-09T19:44:46.860Z,10.98
2023-05-09T19:47:16.354Z,8.73
2023-05-09T19:49:45.552Z,7.72
2023-05-09T19:52:14.886Z,13.23
2023-05-09T19:54:43.951Z,11.90
2023-05-09T19:57:13.664Z,13.85
2023-05-09T19:59:42.968Z,10.45
2023-05-09T20:02:13.791Z,9.75
2023-05-09T20:04:49.511Z,8.40
2023-05-09T20:07:19.281Z,14.88
2023-05-09T20:09:48.863Z,11.32
2023-05-09T20:12:18.297Z,15.95
2023-05-09T20:14:47.677Z,10.10
2023-05-09T20:17:18.652Z,11.40
2023-05-09T20:19:47.845Z,13.18
2023-05-09T20:22:18.476Z,10.02
2023-05-09T20:24:47.711Z,11.80
2023-05-09T20:27:17.566Z,9.93
2023-05-09T20:29:46.859Z,12.32
2023-05-09T20:32:17.619Z,10.02
2023-05-09T20:34:46.810Z,10.07
2023-05-09T20:37:16.254Z,8.70
2023-05-09T20:39:45.294Z,15.10
2023-05-09T20:42:14.688Z,10.57
2023-05-09T20:44:44.325Z,12.30
2023-05-09T20:47:13.800Z,12.48
2023-05-09T20:49:44.455Z,12.95
2023-05-09T20:52:14.220Z,8.77
2023-05-09T20:54:43.489Z,9.50
2023-05-09T20:57:13.128Z,10.35
2023-05-09T20:59:42.820Z,11.25
2023-05-09T21:02:12.372Z,14.52
2023-05-09T21:04:41.380Z,11.10
2023-05-09T21:07:12.656Z,10.02
2023-05-09T21:09:42.320Z,12.40
2023-05-09T21:12:11.652Z,10.93
2023-05-09T21:14:40.978Z,9.35
2023-05-09T21:17:10.561Z,12.48
2023-05-09T21:19:39.711Z,9.98
2023-05-09T21:22:09.348Z,9.45
2023-05-09T21:24:39.836Z,12.02
2023-05-09T21:27:09.300Z,12.07
2023-05-09T21:29:38.348Z,11.20
2023-05-09T21:32:08.109Z,11.07
2023-05-09T21:34:37.109Z,13.07
2023-05-09T21:37:06.557Z,9.88
2023-05-09T21:39:35.947Z,13.45
2023-05-09T21:42:06.792Z,10.63
2023-05-09T21:44:36.664Z,11.82
2023-05-09T21:47:06.488Z,8.13
2023-05-09T21:49:35.598Z,17.67
2023-05-09T21:52:05.333Z,10.73
2023-05-09T21:54:34.546Z,8.27
2023-05-09T21:57:05.365Z,9.73
2023-05-09T21:59:34.535Z,10.90
2023-05-09T22:02:04.065Z,10.63
2023-05-09T22:04:33.383Z,10.00
2023-05-09T22:07:02.771Z,8.75
2023-05-09T22:09:32.205Z,8.68
2023-05-09T22:12:01.606Z,6.53
2023-05-09T22:14:37.168Z,8.70
2023-05-09T22:17:11.492Z,9.70
2023-05-09T22:19:40.567Z,9.88
2023-05-09T22:22:10.034Z,9.32
2023-05-09T22:24:41.497Z,9.70
2023-05-09T22:27:11.300Z,9.18
2023-05-09T22:29:41.948Z,9.23
2023-05-09T22:32:11.663Z,7.70
2023-05-09T22:34:40.882Z,9.70
2023-05-09T22:37:10.231Z,8.93
